Airfield :







YOU CAN JOIN US ON...

 
LOGIN :

Register | Disclaimer

   EN    FR    IT 

 









Legend :    VFR   Marginal VFR   IFR   Intensive IFR   Very Intensive IFR
Visi :
Ceiling :
>= 8 km
>= 3000ft
5 to 8 km
1000 to 3000 ft
1500m to 5 km
500 to 1000 ft
800 to 1500m
200 to 500 ft
< 800m
< 200 ft
Symbols :   Thunderstorms  Fog  Heavy snow  Heavy precipitations  Wind > 20 kt







- Airport Elevation : 1808 ft
- IATA code : YWK


CYWK - Wabush

CURRENT METAR :
  • 210000Z 10008G17KT 15SM FEW060 OVC095 07/M01 A2982 RMK SC2AC6 SLP120

EXPIRED METARs :
  • 202300Z 11009G15KT 15SM SCT060 BKN110 08/M01 A2981 RMK SC3AC4 SLP118
  • 202200Z 09010G17KT 15SM SCT060 BKN110 OVC180 09/M01 A2981 RMK CU3AC3AC2 SLP117

TAF AMD TAF CYWK
Valid from the 21 at 00:00 until the 21 at 08:00 UTC


210013Z 2100/2108 10008KT P6SM BKN050
FM210400 08012G22KT P6SM BKN015 OVC030
TEMPO 2104/2108 3SM -SN BKN008 OVC030 RMK NXT FCST BY 210200Z
CZUL FIR / North America



MET'MAP, your aeronautical weather chart ! - Copyright ORBIFLY December 2007 - Disclaimer

ORBIFLY MET'MAP TEAM :

Programming & Development : Alexandra Zaïnal
Concept & Development : Baudouin d'Aumeries
Co-Development & Prog : Marc-Olivier Méhu
Technical & hardware support : Manuel Goepfert

Contact : metmap@orbifly.com




SOURCES & CREDITS :

   NOAA